createdAt,value
2019-01-02T00:00:50.941Z,1021.44
2019-01-02T00:01:50.921Z,1021.41
2019-01-02T00:02:50.899Z,1021.44
2019-01-02T00:03:50.876Z,1021.53
2019-01-02T00:04:50.866Z,1021.51
2019-01-02T00:05:50.831Z,1021.43
2019-01-02T00:06:50.809Z,1021.54
2019-01-02T00:07:50.796Z,1021.47
2019-01-02T00:08:50.765Z,1021.48
2019-01-02T00:09:50.744Z,1021.48
2019-01-02T00:10:50.734Z,1021.59
2019-01-02T00:11:50.696Z,1021.47
2019-01-02T00:12:50.674Z,1021.51
2019-01-02T00:13:50.653Z,1021.52
2019-01-02T00:14:50.631Z,1021.72
2019-01-02T00:15:50.607Z,1021.61
2019-01-02T00:16:50.599Z,1021.65
2019-01-02T00:17:50.568Z,1021.63
2019-01-02T00:18:50.543Z,1021.63
2019-01-02T00:19:50.520Z,1021.62
2019-01-02T00:20:50.497Z,1021.71
2019-01-02T00:21:50.475Z,1021.73
2019-01-02T00:22:50.457Z,1021.72
2019-01-02T00:23:50.434Z,1021.71
2019-01-02T00:24:50.412Z,1021.67
2019-01-02T00:25:50.393Z,1021.71
2019-01-02T00:26:50.366Z,1021.75
2019-01-02T00:27:50.346Z,1021.80
2019-01-02T00:28:50.319Z,1021.72
2019-01-02T00:29:50.299Z,1021.68
2019-01-02T00:30:50.278Z,1021.74
2019-01-02T00:31:50.254Z,1021.81
2019-01-02T00:32:50.240Z,1021.87
2019-01-02T00:33:50.207Z,1021.81
2019-01-02T00:34:50.185Z,1021.85
2019-01-02T00:35:50.161Z,1021.82
2019-01-02T00:36:50.143Z,1021.92
2019-01-02T00:37:50.132Z,1021.90
2019-01-02T00:38:50.110Z,1021.89
2019-01-02T00:39:50.071Z,1021.85
2019-01-02T00:40:50.087Z,1021.76
2019-01-02T00:41:50.039Z,1021.82
2019-01-02T00:42:50.010Z,1021.83
2019-01-02T00:43:49.984Z,1021.83
2019-01-02T00:44:49.961Z,1021.84
2019-01-02T00:45:49.938Z,1021.83
2019-01-02T00:46:49.918Z,1021.78
2019-01-02T00:47:49.895Z,1021.78
2019-01-02T00:48:49.872Z,1021.77
2019-01-02T00:49:49.854Z,1021.75
2019-01-02T00:50:49.828Z,1021.77
2019-01-02T00:51:49.813Z,1021.76
2019-01-02T00:52:49.790Z,1021.73
2019-01-02T00:53:49.764Z,1021.68
2019-01-02T00:54:49.737Z,1021.71
2019-01-02T00:55:49.718Z,1021.74
2019-01-02T00:56:49.691Z,1021.75
2019-01-02T00:57:49.672Z,1021.74
2019-01-02T00:58:49.648Z,1021.77
2019-01-02T00:59:49.634Z,1021.77
2019-01-02T01:00:49.646Z,1021.72
2019-01-02T01:01:49.585Z,1021.83
2019-01-02T01:02:49.572Z,1021.79
2019-01-02T01:03:49.539Z,1021.87
2019-01-02T01:04:49.514Z,1021.83
2019-01-02T01:05:49.497Z,1021.81
2019-01-02T01:06:49.473Z,1021.91
2019-01-02T01:07:49.455Z,1021.83
2019-01-02T01:08:49.426Z,1021.81
2019-01-02T01:09:49.404Z,1021.82
2019-01-02T01:10:49.386Z,1021.78
2019-01-02T01:11:49.358Z,1021.87
2019-01-02T01:12:49.341Z,1021.81
2019-01-02T01:13:49.318Z,1021.82
2019-01-02T01:14:49.291Z,1021.90
2019-01-02T01:15:49.278Z,1021.95
2019-01-02T01:16:49.248Z,1021.96
2019-01-02T01:17:49.230Z,1021.98
2019-01-02T01:18:49.203Z,1021.95
2019-01-02T01:19:49.189Z,1022.04
2019-01-02T01:20:49.157Z,1022.02
2019-01-02T01:21:49.141Z,1022.04
2019-01-02T01:22:49.112Z,1021.93
2019-01-02T01:23:49.090Z,1022.08
2019-01-02T01:24:49.071Z,1022.09
2019-01-02T01:25:49.046Z,1022.13
2019-01-02T01:26:49.025Z,1022.13
2019-01-02T01:27:49.004Z,1022.22
2019-01-02T01:28:48.985Z,1022.17
2019-01-02T01:29:48.963Z,1022.21
2019-01-02T01:30:48.936Z,1022.25
2019-01-02T01:31:48.915Z,1022.30
2019-01-02T01:32:48.890Z,1022.31
2019-01-02T01:33:48.867Z,1022.27
2019-01-02T01:34:48.846Z,1022.23
2019-01-02T01:35:48.821Z,1022.30
2019-01-02T01:36:48.807Z,1022.26
2019-01-02T01:37:48.779Z,1022.28
2019-01-02T01:38:48.757Z,1022.24
2019-01-02T01:39:48.735Z,1022.21
2019-01-02T01:40:48.715Z,1022.26
2019-01-02T01:41:48.691Z,1022.30
2019-01-02T01:42:48.668Z,1022.34
2019-01-02T01:43:48.643Z,1022.36
2019-01-02T01:44:48.620Z,1022.39
2019-01-02T01:45:48.609Z,1022.36
2019-01-02T01:46:48.579Z,1022.42
2019-01-02T01:47:48.563Z,1022.42
2019-01-02T01:48:48.538Z,1022.45
2019-01-02T01:49:48.519Z,1022.50
2019-01-02T01:50:48.488Z,1022.50
2019-01-02T01:51:48.467Z,1022.47
2019-01-02T01:52:48.446Z,1022.49
2019-01-02T01:53:48.426Z,1022.53
2019-01-02T01:54:48.401Z,1022.53
2019-01-02T01:55:48.383Z,1022.53
2019-01-02T01:56:48.358Z,1022.56
2019-01-02T01:57:48.333Z,1022.53
2019-01-02T01:58:48.312Z,1022.53
2019-01-02T01:59:48.291Z,1022.51
2019-01-02T02:00:48.269Z,1022.52
2019-01-02T02:01:48.246Z,1022.46
2019-01-02T02:02:48.224Z,1022.39
2019-01-02T02:03:48.201Z,1022.41
2019-01-02T02:04:48.180Z,1022.43
2019-01-02T02:05:48.157Z,1022.43
2019-01-02T02:06:48.138Z,1022.42
2019-01-02T02:07:48.115Z,1022.38
2019-01-02T02:08:48.095Z,1022.42
2019-01-02T02:09:48.080Z,1022.33
2019-01-02T02:10:48.055Z,1022.36
2019-01-02T02:11:48.025Z,1022.38
2019-01-02T02:12:48.007Z,1022.34
2019-01-02T02:13:47.982Z,1022.37
2019-01-02T02:14:47.961Z,1022.38
2019-01-02T02:15:47.938Z,1022.35
2019-01-02T02:16:47.911Z,1022.37
2019-01-02T02:17:47.894Z,1022.32
2019-01-02T02:18:47.870Z,1022.40
2019-01-02T02:19:47.850Z,1022.44
2019-01-02T02:20:47.827Z,1022.45
2019-01-02T02:21:47.802Z,1022.35
2019-01-02T02:22:47.778Z,1022.54
2019-01-02T02:23:47.756Z,1022.48
2019-01-02T02:24:47.735Z,1022.45
2019-01-02T02:25:47.711Z,1022.48
2019-01-02T02:26:47.696Z,1022.58
2019-01-02T02:27:47.666Z,1022.54
2019-01-02T02:28:47.657Z,1022.62
2019-01-02T02:29:47.621Z,1022.57
2019-01-02T02:30:47.603Z,1022.53
2019-01-02T02:31:47.583Z,1022.59
2019-01-02T02:32:47.557Z,1022.52
2019-01-02T02:33:47.545Z,1022.62
2019-01-02T02:34:47.511Z,1022.67
2019-01-02T02:35:47.492Z,1022.61
2019-01-02T02:36:47.465Z,1022.69
2019-01-02T02:37:47.446Z,1022.74
2019-01-02T02:38:47.421Z,1022.74
2019-01-02T02:39:47.398Z,1022.70
2019-01-02T02:40:47.377Z,1022.73
2019-01-02T02:41:47.352Z,1022.68
2019-01-02T02:42:47.334Z,1022.69
2019-01-02T02:43:47.308Z,1022.66
2019-01-02T02:44:47.286Z,1022.76
2019-01-02T02:45:47.268Z,1022.76
2019-01-02T02:46:47.249Z,1022.76
2019-01-02T02:47:47.217Z,1022.75
2019-01-02T02:48:47.193Z,1022.67
2019-01-02T02:49:47.172Z,1022.73
2019-01-02T02:50:47.153Z,1022.70
2019-01-02T02:51:47.129Z,1022.70
2019-01-02T02:52:47.104Z,1022.72
2019-01-02T02:53:47.081Z,1022.73
2019-01-02T02:54:47.059Z,1022.72
2019-01-02T02:55:47.037Z,1022.73
2019-01-02T02:56:47.014Z,1022.71
2019-01-02T02:57:46.993Z,1022.67
2019-01-02T02:58:46.972Z,1022.69
2019-01-02T02:59:46.947Z,1022.68
2019-01-02T03:00:46.930Z,1022.63
2019-01-02T03:01:46.906Z,1022.60
2019-01-02T03:02:46.883Z,1022.68
2019-01-02T03:03:46.857Z,1022.70
2019-01-02T03:04:46.841Z,1022.71
2019-01-02T03:05:46.814Z,1022.67
2019-01-02T03:06:48.365Z,1022.69
2019-01-02T03:07:46.770Z,1022.67
2019-01-02T03:08:46.747Z,1022.72
2019-01-02T03:09:46.726Z,1022.70
2019-01-02T03:10:46.701Z,1022.69
2019-01-02T03:11:46.683Z,1022.66
2019-01-02T03:12:46.660Z,1022.76
2019-01-02T03:13:46.638Z,1022.72
2019-01-02T03:14:46.613Z,1022.73
2019-01-02T03:15:46.595Z,1022.73
2019-01-02T03:16:46.571Z,1022.77
2019-01-02T03:17:46.545Z,1022.77
2019-01-02T03:18:46.526Z,1022.73
2019-01-02T03:19:46.500Z,1022.75
2019-01-02T03:20:46.480Z,1022.75
2019-01-02T03:21:46.456Z,1022.77
2019-01-02T03:22:46.432Z,1022.76
2019-01-02T03:23:46.411Z,1022.78
2019-01-02T03:24:46.389Z,1022.87
2019-01-02T03:25:46.367Z,1022.88
2019-01-02T03:26:46.349Z,1022.90
2019-01-02T03:27:46.323Z,1022.93
2019-01-02T03:28:46.307Z,1022.93
2019-01-02T03:29:46.276Z,1022.87
2019-01-02T03:30:46.255Z,1022.88
2019-01-02T03:31:46.243Z,1022.91
2019-01-02T03:32:46.213Z,1022.93
2019-01-02T03:33:46.193Z,1022.97
2019-01-02T03:34:46.175Z,1022.99
2019-01-02T03:35:46.149Z,1022.95
2019-01-02T03:36:46.123Z,1022.98
2019-01-02T03:37:46.100Z,1022.95
2019-01-02T03:38:46.076Z,1023.05
2019-01-02T03:39:46.053Z,1023.03
2019-01-02T03:40:46.031Z,1023.07
2019-01-02T03:41:46.010Z,1023.03
2019-01-02T03:42:45.987Z,1023.07
2019-01-02T03:43:45.966Z,1023.05
2019-01-02T03:44:45.942Z,1023.01
2019-01-02T03:45:45.923Z,1022.98
2019-01-02T03:46:45.899Z,1022.99
2019-01-02T03:47:45.879Z,1022.98
2019-01-02T03:48:45.854Z,1022.97
2019-01-02T03:49:45.832Z,1022.98
2019-01-02T03:50:45.811Z,1023.04
2019-01-02T03:51:45.790Z,1023.02
2019-01-02T03:52:45.765Z,1023.05
2019-01-02T03:53:45.746Z,1023.09
2019-01-02T03:54:45.723Z,1023.14
2019-01-02T03:55:45.700Z,1023.14
2019-01-02T03:56:45.678Z,1023.11
2019-01-02T03:57:45.659Z,1023.17
2019-01-02T03:58:45.635Z,1023.20
2019-01-02T03:59:45.614Z,1023.18
2019-01-02T04:00:45.591Z,1023.22
2019-01-02T04:01:45.567Z,1023.17
2019-01-02T04:02:45.545Z,1023.23
2019-01-02T04:03:45.525Z,1023.19
2019-01-02T04:04:45.505Z,1023.22
2019-01-02T04:05:45.480Z,1023.18
2019-01-02T04:06:45.467Z,1023.17
2019-01-02T04:07:45.433Z,1023.12
2019-01-02T04:08:45.410Z,1023.18
2019-01-02T04:09:45.388Z,1023.17
2019-01-02T04:10:45.374Z,1023.13
2019-01-02T04:11:45.343Z,1023.16
2019-01-02T04:12:45.320Z,1023.11
2019-01-02T04:13:45.301Z,1023.10
2019-01-02T04:14:45.276Z,1023.13
2019-01-02T04:15:45.258Z,1023.16
2019-01-02T04:16:45.232Z,1023.13
2019-01-02T04:17:45.211Z,1023.12
2019-01-02T04:18:45.190Z,1023.11
2019-01-02T04:19:45.167Z,1023.16
2019-01-02T04:20:45.146Z,1023.17
2019-01-02T04:21:45.123Z,1023.17
2019-01-02T04:22:45.103Z,1023.07
2019-01-02T04:23:45.077Z,1023.10
2019-01-02T04:24:45.057Z,1023.11
2019-01-02T04:25:45.037Z,1023.11
2019-01-02T04:26:45.012Z,1023.18
2019-01-02T04:27:44.988Z,1023.16
2019-01-02T04:28:44.971Z,1023.17
2019-01-02T04:29:44.944Z,1023.14
2019-01-02T04:30:44.923Z,1023.23
2019-01-02T04:31:44.899Z,1023.15
2019-01-02T04:32:44.879Z,1023.22
2019-01-02T04:33:44.867Z,1023.15
2019-01-02T04:34:44.839Z,1023.19
2019-01-02T04:35:44.811Z,1023.12
2019-01-02T04:36:44.791Z,1023.18
2019-01-02T04:37:44.778Z,1023.14
2019-01-02T04:38:44.744Z,1023.14
2019-01-02T04:39:44.722Z,1023.22
2019-01-02T04:40:44.701Z,1023.22
2019-01-02T04:41:44.678Z,1023.15
2019-01-02T04:42:44.654Z,1023.23
2019-01-02T04:43:44.635Z,1023.13
2019-01-02T04:44:44.622Z,1023.22
2019-01-02T04:45:44.593Z,1023.22
2019-01-02T04:46:44.566Z,1023.19
2019-01-02T04:47:44.582Z,1023.16
2019-01-02T04:48:44.521Z,1023.16
2019-01-02T04:49:44.500Z,1023.19
2019-01-02T04:50:44.478Z,1023.19
2019-01-02T04:51:44.455Z,1023.20
2019-01-02T04:52:44.435Z,1023.21
2019-01-02T04:53:44.415Z,1023.19
2019-01-02T04:54:44.391Z,1023.20
2019-01-02T04:55:44.368Z,1023.20
2019-01-02T04:56:44.343Z,1023.21
2019-01-02T04:57:44.324Z,1023.19
2019-01-02T04:58:44.301Z,1023.21
2019-01-02T04:59:44.275Z,1023.17
2019-01-02T05:00:44.256Z,1023.24
2019-01-02T05:01:44.233Z,1023.27
2019-01-02T05:02:44.212Z,1023.27
2019-01-02T05:03:44.193Z,1023.27
2019-01-02T05:04:44.166Z,1023.28
2019-01-02T05:05:44.147Z,1023.25
2019-01-02T05:06:44.121Z,1023.26
2019-01-02T05:07:44.102Z,1023.22
2019-01-02T05:08:44.077Z,1023.25
2019-01-02T05:09:44.066Z,1023.27
2019-01-02T05:10:44.032Z,1023.35
2019-01-02T05:11:44.015Z,1023.34
2019-01-02T05:12:43.990Z,1023.36
2019-01-02T05:13:43.967Z,1023.42
2019-01-02T05:14:43.944Z,1023.45
2019-01-02T05:15:43.929Z,1023.38
2019-01-02T05:16:43.899Z,1023.43
2019-01-02T05:17:43.917Z,1023.42
2019-01-02T05:18:43.859Z,1023.51
2019-01-02T05:19:43.835Z,1023.53
2019-01-02T05:20:43.811Z,1023.47
2019-01-02T05:21:43.787Z,1023.53
2019-01-02T05:22:43.767Z,1023.61
2019-01-02T05:23:43.752Z,1023.66
2019-01-02T05:24:43.721Z,1023.67
2019-01-02T05:25:43.699Z,1023.64
2019-01-02T05:26:43.682Z,1023.63
2019-01-02T05:27:43.655Z,1023.66
2019-01-02T05:28:43.636Z,1023.66
2019-01-02T05:29:43.620Z,1023.64
2019-01-02T05:30:43.592Z,1023.68
2019-01-02T05:31:43.572Z,1023.69
2019-01-02T05:32:43.549Z,1023.62
2019-01-02T05:33:43.522Z,1023.65
2019-01-02T05:34:43.509Z,1023.77
2019-01-02T05:35:43.477Z,1023.67
2019-01-02T05:36:43.458Z,1023.73
2019-01-02T05:37:43.433Z,1023.71
2019-01-02T05:38:43.411Z,1023.77
2019-01-02T05:39:43.390Z,1023.76
2019-01-02T05:40:43.369Z,1023.71
2019-01-02T05:41:43.348Z,1023.77
2019-01-02T05:42:43.324Z,1023.75
2019-01-02T05:43:43.304Z,1023.78
2019-01-02T05:44:43.282Z,1023.79
2019-01-02T05:45:43.269Z,1023.80
2019-01-02T05:46:43.242Z,1023.81
2019-01-02T05:47:43.213Z,1023.81
2019-01-02T05:48:43.203Z,1023.84
2019-01-02T05:49:43.170Z,1023.80
2019-01-02T05:50:43.148Z,1023.84
2019-01-02T05:51:43.123Z,1023.89
2019-01-02T05:52:43.107Z,1023.85
2019-01-02T05:53:43.080Z,1023.94
2019-01-02T05:54:43.062Z,1023.90
2019-01-02T05:55:43.037Z,1023.88
2019-01-02T05:56:43.027Z,1023.92
2019-01-02T05:57:42.993Z,1023.91
2019-01-02T05:58:42.969Z,1023.91
2019-01-02T05:59:42.944Z,1023.92
2019-01-02T06:00:42.925Z,1023.97
2019-01-02T06:01:42.900Z,1023.95
2019-01-02T06:02:42.878Z,1023.97
2019-01-02T06:03:42.855Z,1024.00
2019-01-02T06:04:42.834Z,1023.99
2019-01-02T06:05:42.812Z,1023.98
2019-01-02T06:06:42.790Z,1024.00
2019-01-02T06:07:42.768Z,1023.98
2019-01-02T06:08:42.746Z,1023.97
2019-01-02T06:09:42.723Z,1023.98
2019-01-02T06:10:42.701Z,1024.02
2019-01-02T06:11:42.681Z,1024.07
2019-01-02T06:12:42.655Z,1023.98
2019-01-02T06:13:42.635Z,1024.03
2019-01-02T06:14:42.611Z,1024.07
2019-01-02T06:15:42.590Z,1024.10
2019-01-02T06:16:42.573Z,1024.12
2019-01-02T06:17:42.547Z,1024.12
2019-01-02T06:18:42.522Z,1024.14
2019-01-02T06:19:42.497Z,1024.17
2019-01-02T06:20:42.479Z,1024.18
2019-01-02T06:21:42.456Z,1024.18
2019-01-02T06:22:42.439Z,1024.09
2019-01-02T06:23:42.409Z,1024.12
2019-01-02T06:24:42.389Z,1024.11
2019-01-02T06:25:42.363Z,1024.16
2019-01-02T06:26:42.343Z,1024.16
2019-01-02T06:27:42.329Z,1024.18
2019-01-02T06:28:42.298Z,1024.15
2019-01-02T06:29:42.280Z,1024.16
2019-01-02T06:30:42.253Z,1024.19
2019-01-02T06:31:42.229Z,1024.22
2019-01-02T06:32:42.212Z,1024.27
2019-01-02T06:33:42.192Z,1024.23
2019-01-02T06:34:42.164Z,1024.31
2019-01-02T06:35:42.144Z,1024.31
2019-01-02T06:36:42.128Z,1024.36
2019-01-02T06:37:42.098Z,1024.32
2019-01-02T06:38:42.077Z,1024.28
2019-01-02T06:39:42.064Z,1024.31
2019-01-02T06:40:42.031Z,1024.30
2019-01-02T06:41:42.017Z,1024.32
2019-01-02T06:42:41.987Z,1024.32
2019-01-02T06:43:41.965Z,1024.36
2019-01-02T06:44:41.945Z,1024.36
2019-01-02T06:45:41.916Z,1024.33
2019-01-02T06:46:41.893Z,1024.37
2019-01-02T06:47:41.877Z,1024.35
2019-01-02T06:48:41.850Z,1024.31
2019-01-02T06:49:41.829Z,1024.27
2019-01-02T06:50:41.812Z,1024.28
2019-01-02T06:51:41.784Z,1024.27
2019-01-02T06:52:41.764Z,1024.29
2019-01-02T06:53:41.736Z,1024.34
2019-01-02T06:54:41.723Z,1024.37
2019-01-02T06:55:41.692Z,1024.37
2019-01-02T06:56:41.670Z,1024.44
2019-01-02T06:57:41.654Z,1024.39
2019-01-02T06:58:41.626Z,1024.40
2019-01-02T06:59:41.611Z,1024.42
2019-01-02T07:00:41.584Z,1024.46
2019-01-02T07:01:41.559Z,1024.43
2019-01-02T07:02:41.541Z,1024.47
2019-01-02T07:03:41.515Z,1024.53
2019-01-02T07:04:41.492Z,1024.51
2019-01-02T07:05:41.473Z,1024.55
2019-01-02T07:06:41.456Z,1024.62
2019-01-02T07:07:41.430Z,1024.60
2019-01-02T07:08:41.418Z,1024.61
2019-01-02T07:09:41.379Z,1024.67
2019-01-02T07:10:41.359Z,1024.65
2019-01-02T07:11:41.338Z,1024.63
2019-01-02T07:12:41.313Z,1024.63
2019-01-02T07:13:41.291Z,1024.61
2019-01-02T07:14:41.270Z,1024.68
2019-01-02T07:15:41.246Z,1024.64
2019-01-02T07:16:41.224Z,1024.69
2019-01-02T07:17:41.202Z,1024.66
2019-01-02T07:18:41.180Z,1024.64
2019-01-02T07:19:41.154Z,1024.64
2019-01-02T07:20:41.133Z,1024.66
2019-01-02T07:21:41.117Z,1024.68
2019-01-02T07:22:41.093Z,1024.70
2019-01-02T07:23:41.065Z,1024.68
2019-01-02T07:24:41.043Z,1024.72
2019-01-02T07:25:41.024Z,1024.73
2019-01-02T07:26:41.002Z,1024.77
2019-01-02T07:27:40.980Z,1024.79
2019-01-02T07:28:40.958Z,1024.81
2019-01-02T07:29:40.934Z,1024.81
2019-01-02T07:30:40.913Z,1024.87
2019-01-02T07:31:40.894Z,1024.88
2019-01-02T07:32:40.869Z,1024.98
2019-01-02T07:33:40.849Z,1024.97
2019-01-02T07:34:40.829Z,1024.98
2019-01-02T07:35:40.803Z,1025.01
2019-01-02T07:36:40.779Z,1025.11
2019-01-02T07:37:40.756Z,1025.06
2019-01-02T07:38:40.753Z,1025.11
2019-01-02T07:39:40.714Z,1025.12
2019-01-02T07:40:40.691Z,1025.14
2019-01-02T07:41:40.679Z,1025.17
2019-01-02T07:42:40.646Z,1025.17
2019-01-02T07:43:40.622Z,1025.18
2019-01-02T07:44:40.600Z,1025.24
2019-01-02T07:45:40.578Z,1025.29
2019-01-02T07:46:40.561Z,1025.27
2019-01-02T07:47:40.537Z,1025.29
2019-01-02T07:48:40.527Z,1025.24
2019-01-02T07:49:40.493Z,1025.28
2019-01-02T07:50:40.466Z,1025.32
2019-01-02T07:51:40.443Z,1025.31
2019-01-02T07:52:40.423Z,1025.33
2019-01-02T07:53:40.402Z,1025.30
2019-01-02T07:54:40.380Z,1025.33
2019-01-02T07:55:40.356Z,1025.23
2019-01-02T07:56:40.338Z,1025.26
2019-01-02T07:57:40.310Z,1025.32
2019-01-02T07:58:40.288Z,1025.32
2019-01-02T07:59:40.264Z,1025.33
2019-01-02T08:00:40.247Z,1025.35
2019-01-02T08:01:40.225Z,1025.30
2019-01-02T08:02:40.214Z,1025.37
2019-01-02T08:03:40.186Z,1025.35
2019-01-02T08:04:40.158Z,1025.42
2019-01-02T08:05:40.134Z,1025.40
2019-01-02T08:06:40.111Z,1025.41
2019-01-02T08:07:40.084Z,1025.42
2019-01-02T08:08:40.062Z,1025.43
2019-01-02T08:09:40.044Z,1025.43
2019-01-02T08:10:40.031Z,1025.44
2019-01-02T08:11:39.996Z,1025.49
2019-01-02T08:12:39.977Z,1025.52
2019-01-02T08:13:40.954Z,1025.51
2019-01-02T08:14:39.932Z,1025.53
2019-01-02T08:15:39.907Z,1025.61
2019-01-02T08:16:39.886Z,1025.60
2019-01-02T08:17:39.869Z,1025.62
2019-01-02T08:18:39.843Z,1025.59
2019-01-02T08:19:39.815Z,1025.65
2019-01-02T08:20:39.810Z,1025.64
2019-01-02T08:21:39.774Z,1025.67
2019-01-02T08:22:39.749Z,1025.64
2019-01-02T08:23:39.730Z,1025.64
2019-01-02T08:24:39.708Z,1025.68
2019-01-02T08:25:39.681Z,1025.71
2019-01-02T08:26:39.660Z,1025.71
2019-01-02T08:27:39.637Z,1025.75
2019-01-02T08:28:39.614Z,1025.76
2019-01-02T08:29:39.597Z,1025.82
2019-01-02T08:30:39.569Z,1025.77
2019-01-02T08:31:39.555Z,1025.85
2019-01-02T08:32:39.529Z,1025.80
2019-01-02T08:33:39.503Z,1025.84
2019-01-02T08:34:39.485Z,1025.87
2019-01-02T08:35:39.461Z,1025.95
2019-01-02T08:36:39.436Z,1025.95
2019-01-02T08:37:39.420Z,1025.98
2019-01-02T08:38:39.390Z,1025.99
2019-01-02T08:39:39.387Z,1026.02
2019-01-02T08:40:39.345Z,1026.04
2019-01-02T08:41:39.328Z,1026.11
2019-01-02T08:42:39.305Z,1026.13
2019-01-02T08:43:39.279Z,1026.15
2019-01-02T08:44:39.257Z,1026.13
2019-01-02T08:45:39.235Z,1026.16
2019-01-02T08:46:39.227Z,1026.16
2019-01-02T08:47:39.196Z,1026.22
2019-01-02T08:48:39.175Z,1026.17
2019-01-02T08:49:39.152Z,1026.21
2019-01-02T08:50:39.125Z,1026.21
2019-01-02T08:51:39.103Z,1026.43
2019-01-02T08:52:39.083Z,1026.43
2019-01-02T08:53:39.066Z,1026.60
2019-01-02T08:54:39.040Z,1026.59
2019-01-02T08:55:39.020Z,1026.54
2019-01-02T08:56:39.000Z,1026.74
2019-01-02T08:57:38.978Z,1026.80
2019-01-02T08:58:38.959Z,1026.89
2019-01-02T08:59:38.938Z,1026.87
2019-01-02T09:00:38.923Z,1026.93
2019-01-02T09:01:38.897Z,1026.93
2019-01-02T09:02:38.882Z,1026.98
2019-01-02T09:03:38.865Z,1027.01
2019-01-02T09:04:38.852Z,1027.02
2019-01-02T09:05:38.827Z,1026.93
2019-01-02T09:06:38.813Z,1026.95
2019-01-02T09:07:38.791Z,1026.84
2019-01-02T09:08:38.775Z,1026.92
2019-01-02T09:09:38.757Z,1026.94
2019-01-02T09:10:38.742Z,1026.99
2019-01-02T09:11:38.723Z,1026.99
2019-01-02T09:12:38.708Z,1027.05
2019-01-02T09:13:38.694Z,1027.08
2019-01-02T09:14:38.685Z,1027.17
2019-01-02T09:15:38.660Z,1027.19
2019-01-02T09:16:38.653Z,1027.24
2019-01-02T09:17:38.635Z,1027.27
2019-01-02T09:18:38.619Z,1027.35
2019-01-02T09:19:38.604Z,1027.30
2019-01-02T09:20:38.590Z,1027.33
2019-01-02T09:21:38.581Z,1027.41
2019-01-02T09:22:38.567Z,1027.35
2019-01-02T09:23:38.548Z,1027.36
2019-01-02T09:24:38.533Z,1027.41
2019-01-02T09:25:38.519Z,1027.53
2019-01-02T09:26:38.507Z,1027.49
2019-01-02T09:27:38.502Z,1027.52
2019-01-02T09:28:38.480Z,1027.52
2019-01-02T09:29:38.471Z,1027.58
2019-01-02T09:30:38.454Z,1027.64
2019-01-02T09:31:38.442Z,1027.70
2019-01-02T09:32:38.433Z,1027.71
2019-01-02T09:33:38.419Z,1027.72
2019-01-02T09:34:38.427Z,1027.73
2019-01-02T09:35:38.394Z,1027.79
2019-01-02T09:36:38.389Z,1027.86
2019-01-02T09:37:38.373Z,1027.92
2019-01-02T09:38:38.359Z,1027.96
2019-01-02T09:39:38.347Z,1027.99
2019-01-02T09:40:38.383Z,1027.96
2019-01-02T09:41:38.332Z,1028.03
2019-01-02T09:42:38.313Z,1028.07
2019-01-02T09:43:38.302Z,1028.07
2019-01-02T09:44:38.289Z,1028.10
2019-01-02T09:45:38.280Z,1028.14
2019-01-02T09:46:38.285Z,1028.18
2019-01-02T09:47:38.257Z,1028.21
2019-01-02T09:48:38.248Z,1028.29
2019-01-02T09:49:38.234Z,1028.33
2019-01-02T09:50:38.226Z,1028.33
2019-01-02T09:51:38.212Z,1028.41
2019-01-02T09:52:38.197Z,1028.49
2019-01-02T09:53:38.190Z,1028.48
2019-01-02T09:54:38.174Z,1028.55
2019-01-02T09:55:38.163Z,1028.59
2019-01-02T09:56:38.152Z,1028.69
2019-01-02T09:57:38.154Z,1028.74
2019-01-02T09:58:38.138Z,1028.84
2019-01-02T09:59:38.126Z,1028.90
2019-01-02T10:00:38.111Z,1028.95
2019-01-02T10:01:38.103Z,1028.95
2019-01-02T10:02:38.088Z,1029.01
2019-01-02T10:03:38.083Z,1029.12
2019-01-02T10:04:38.077Z,1029.04
2019-01-02T10:05:38.069Z,1029.19
2019-01-02T10:06:38.048Z,1029.31
2019-01-02T10:07:38.041Z,1029.34
2019-01-02T10:08:38.032Z,1029.31
2019-01-02T10:09:38.020Z,1029.22
2019-01-02T10:10:38.007Z,1029.10
2019-01-02T10:11:37.996Z,1029.06
2019-01-02T10:12:37.986Z,1028.98
2019-01-02T10:13:37.975Z,1028.97
2019-01-02T10:14:37.966Z,1028.94
2019-01-02T10:15:37.968Z,1028.92
2019-01-02T10:16:37.951Z,1028.88
2019-01-02T10:17:37.933Z,1028.67
2019-01-02T10:18:37.925Z,1028.85
2019-01-02T10:19:37.919Z,1028.77
2019-01-02T10:20:43.712Z,1028.74
2019-01-02T10:21:37.896Z,1028.75
2019-01-02T10:22:37.885Z,1028.74
2019-01-02T10:23:37.870Z,1028.72
2019-01-02T10:24:37.860Z,1028.70
2019-01-02T10:25:37.850Z,1028.72
2019-01-02T10:26:37.839Z,1028.74
2019-01-02T10:27:37.826Z,1028.77
2019-01-02T10:28:37.828Z,1028.76
2019-01-02T10:29:37.807Z,1028.80
2019-01-02T10:30:37.798Z,1028.80
2019-01-02T10:31:37.805Z,1028.84
2019-01-02T10:32:37.775Z,1028.89
2019-01-02T10:33:37.763Z,1028.89
2019-01-02T10:34:37.750Z,1028.82
2019-01-02T10:35:37.748Z,1028.83
2019-01-02T10:36:37.734Z,1028.67
2019-01-02T10:37:37.720Z,1027.79
2019-01-02T10:38:37.715Z,1027.87
2019-01-02T10:39:37.695Z,1028.41
2019-01-02T10:40:37.693Z,1027.83
2019-01-02T10:41:37.689Z,1028.02
2019-01-02T10:42:37.662Z,1027.92
2019-01-02T10:43:37.658Z,1028.01
2019-01-02T10:44:37.641Z,1027.82
2019-01-02T10:45:37.634Z,1028.11
2019-01-02T10:46:37.615Z,1028.47
2019-01-02T10:47:37.603Z,1028.37
2019-01-02T10:48:37.595Z,1028.34
2019-01-02T10:49:37.574Z,1028.34
2019-01-02T10:50:37.567Z,1028.37
2019-01-02T10:51:37.548Z,1028.34
2019-01-02T10:52:37.537Z,1028.44
2019-01-02T10:53:37.525Z,1028.46
2019-01-02T10:54:37.510Z,1028.48
2019-01-02T10:55:37.507Z,1028.48
2019-01-02T10:56:37.488Z,1028.53
2019-01-02T10:57:37.474Z,1028.53
2019-01-02T10:58:37.462Z,1028.50
2019-01-02T10:59:37.449Z,1028.57
2019-01-02T11:00:37.437Z,1028.45
2019-01-02T11:01:37.429Z,1027.89
2019-01-02T11:02:37.412Z,1028.44
2019-01-02T11:03:37.397Z,1028.53
2019-01-02T11:04:37.390Z,1028.42
2019-01-02T11:05:37.376Z,1028.56
2019-01-02T11:06:37.374Z,1028.59
2019-01-02T11:07:37.353Z,1028.52
2019-01-02T11:08:37.345Z,1028.46
2019-01-02T11:09:37.327Z,1028.46
2019-01-02T11:10:37.313Z,1028.48
2019-01-02T11:11:37.305Z,1028.44
2019-01-02T11:12:37.285Z,1028.35
2019-01-02T11:13:37.279Z,1028.29
2019-01-02T11:14:37.264Z,1028.25
2019-01-02T11:15:37.252Z,1028.29
2019-01-02T11:16:37.238Z,1028.21
2019-01-02T11:17:37.227Z,1028.18
2019-01-02T11:18:37.213Z,1028.17
2019-01-02T11:19:37.205Z,1028.14
2019-01-02T11:20:37.190Z,1028.08
2019-01-02T11:21:37.179Z,1028.11
2019-01-02T11:22:37.160Z,1028.14
2019-01-02T11:23:37.145Z,1028.12
2019-01-02T11:24:37.135Z,1028.05
2019-01-02T11:25:37.127Z,1028.05
2019-01-02T11:26:37.107Z,1028.06
2019-01-02T11:27:37.097Z,1028.06
2019-01-02T11:28:37.079Z,1028.04
2019-01-02T11:29:37.065Z,1028.20
2019-01-02T11:30:37.057Z,1028.19
2019-01-02T11:31:37.046Z,1028.19
2019-01-02T11:32:37.025Z,1028.21
2019-01-02T11:33:37.013Z,1028.23
2019-01-02T11:34:36.991Z,1027.94
2019-01-02T11:35:36.980Z,1028.18
2019-01-02T11:36:36.973Z,1028.30
2019-01-02T11:37:36.950Z,1028.03
2019-01-02T11:38:36.934Z,1028.35
2019-01-02T11:39:36.922Z,1028.36
2019-01-02T11:40:36.908Z,1028.35
2019-01-02T11:41:36.893Z,1028.30
2019-01-02T11:42:36.875Z,1028.35
2019-01-02T11:43:36.861Z,1028.27
2019-01-02T11:44:36.848Z,1028.13
2019-01-02T11:45:36.836Z,1028.13
2019-01-02T11:46:36.825Z,1028.02
2019-01-02T11:47:36.811Z,1028.03
2019-01-02T11:48:36.791Z,1027.99
2019-01-02T11:49:36.777Z,1027.95
2019-01-02T11:50:36.764Z,1027.94
2019-01-02T11:51:36.757Z,1027.81
2019-01-02T11:52:36.739Z,1027.88
2019-01-02T11:53:36.721Z,1027.86
2019-01-02T11:54:36.710Z,1027.89
2019-01-02T11:55:36.697Z,1027.89
2019-01-02T11:56:36.693Z,1027.94
2019-01-02T11:57:36.669Z,1028.00
2019-01-02T11:58:36.659Z,1027.94
2019-01-02T11:59:36.651Z,1027.97
2019-01-02T12:00:36.633Z,1028.00
2019-01-02T12:01:36.613Z,1027.93
2019-01-02T12:02:36.608Z,1027.95
2019-01-02T12:03:36.590Z,1027.94
2019-01-02T12:04:36.574Z,1027.95
2019-01-02T12:05:36.559Z,1027.96